Time;durP1;ratioP1;P1;durP2;ratioP2;P2;SDS_P1;SDS_P2;PMS_P1;PMS_P2;Temp;Humidity;BMP_temperature;BMP_pressure;BME280_temperature;BME280_humidity;BME280_pressure;Samples;Min_cycle;Max_cycle;Signal;HPM_P1;HPM_P2
2021/10/14 00:01:01;;;;;;;4.28;1.00;;;;;;;11.10;69.98;101220.88;4995755;28;20312;-51
2021/10/14 00:03:28;;;;;;;2.28;1.30;;;;;;;11.07;70.98;101228.63;4989374;28;20441;-53
2021/10/14 00:05:54;;;;;;;3.15;1.17;;;;;;;11.02;70.66;101232.00;4988263;28;20054;-50
2021/10/14 00:08:21;;;;;;;2.17;0.90;;;;;;;10.96;71.10;101228.44;4992476;28;20042;-51
2021/10/14 00:10:47;;;;;;;4.13;1.10;;;;;;;10.92;70.84;101222.38;4990653;28;20470;-51
2021/10/14 00:13:15;;;;;;;3.20;1.30;;;;;;;10.87;70.39;101224.00;4999080;28;20050;-50
2021/10/14 00:15:42;;;;;;;2.97;1.15;;;;;;;10.83;71.06;101222.22;4989252;28;20073;-52
2021/10/14 00:18:09;;;;;;;3.10;1.10;;;;;;;10.77;70.72;101221.28;4989054;28;20042;-51
2021/10/14 00:20:35;;;;;;;2.72;1.00;;;;;;;10.75;70.53;101220.41;4991128;28;20049;-53
2021/10/14 00:23:02;;;;;;;3.05;1.30;;;;;;;10.70;70.76;101211.66;4989575;28;20429;-54
2021/10/14 00:25:31;;;;;;;4.85;1.98;;;;;;;10.67;71.41;101209.91;4989637;28;20046;-49
2021/10/14 00:27:57;;;;;;;4.03;1.50;;;;;;;10.63;70.81;101220.19;4986844;28;20058;-49
2021/10/14 00:30:24;;;;;;;1.83;1.15;;;;;;;10.59;71.24;101208.03;4991690;28;20450;-49
2021/10/14 00:32:50;;;;;;;3.05;2.22;;;;;;;10.57;70.87;101209.75;4987066;28;20050;-49
2021/10/14 00:35:17;;;;;;;3.30;1.30;;;;;;;10.52;71.16;101202.78;4988996;28;20088;-50
2021/10/14 00:37:44;;;;;;;2.42;1.23;;;;;;;10.49;70.65;101210.50;4996426;28;20136;-50
2021/10/14 00:40:11;;;;;;;2.33;1.42;;;;;;;10.46;71.26;101206.97;4987117;28;20078;-52
2021/10/14 00:42:37;;;;;;;3.08;1.65;;;;;;;10.41;70.57;101209.47;4992058;28;20065;-50
2021/10/14 00:45:04;;;;;;;1.95;1.00;;;;;;;10.37;71.10;101200.75;4985668;28;20074;-52
2021/10/14 00:47:31;;;;;;;2.60;0.95;;;;;;;10.35;71.74;101198.97;4988956;28;20058;-49
2021/10/14 00:49:58;;;;;;;2.63;1.10;;;;;;;10.32;71.35;101198.94;4991614;28;20041;-51
2021/10/14 00:52:26;;;;;;;2.47;1.23;;;;;;;10.29;71.38;101200.63;4996970;28;20054;-50
2021/10/14 00:54:55;;;;;;;2.33;0.95;;;;;;;10.27;71.03;101198.88;4994576;28;20101;-50
2021/10/14 00:57:22;;;;;;;3.65;1.20;;;;;;;10.21;71.08;101202.22;4988930;28;20054;-52
2021/10/14 00:59:50;;;;;;;2.20;1.00;;;;;;;10.18;71.40;101212.53;4998045;28;20108;-50
2021/10/14 01:02:17;;;;;;;1.77;1.02;;;;;;;10.12;71.39;101202.03;4986420;28;20050;-50
2021/10/14 01:04:44;;;;;;;2.30;0.90;;;;;;;10.09;71.60;101201.97;4990840;28;20078;-49
2021/10/14 01:07:10;;;;;;;2.83;1.15;;;;;;;10.08;71.49;101195.06;4989206;28;20494;-52
2021/10/14 01:09:39;;;;;;;2.30;1.27;;;;;;;10.07;71.38;101198.50;4986490;28;20046;-49
2021/10/14 01:12:06;;;;;;;3.10;1.42;;;;;;;10.07;71.35;101193.34;4988550;28;20053;-53
2021/10/14 01:14:32;;;;;;;2.28;1.15;;;;;;;10.05;71.53;101195.91;4986862;28;20407;-52
2021/10/14 01:17:00;;;;;;;2.35;1.20;;;;;;;10.02;71.19;101191.53;4988064;28;20050;-51
2021/10/14 01:19:27;;;;;;;2.80;1.33;;;;;;;9.97;71.33;101187.97;4992798;28;20050;-51
2021/10/14 01:21:53;;;;;;;2.60;1.45;;;;;;;9.94;71.44;101187.94;5003840;28;20050;-51
2021/10/14 01:24:20;;;;;;;4.00;1.60;;;;;;;9.90;71.99;101186.16;4994007;28;20046;-50
2021/10/14 01:26:47;;;;;;;4.32;1.67;;;;;;;9.86;71.81;101184.34;4989417;28;20105;-50
2021/10/14 01:29:14;;;;;;;4.20;2.17;;;;;;;9.83;72.13;101184.28;4991058;28;20682;-49
2021/10/14 01:31:41;;;;;;;5.53;2.72;;;;;;;9.82;71.71;101174.75;4980776;28;20438;-49
2021/10/14 01:34:08;;;;;;;6.55;2.92;;;;;;;9.81;71.83;101176.50;4993306;28;20072;-50
2021/10/14 01:36:35;;;;;;;6.38;3.30;;;;;;;9.77;71.93;101170.38;4991079;28;20043;-49
2021/10/14 01:39:03;;;;;;;5.45;2.78;;;;;;;9.76;72.12;101176.41;4991497;28;20050;-50
2021/10/14 01:41:30;;;;;;;5.97;3.30;;;;;;;9.74;72.16;101175.50;4996789;28;20078;-52
2021/10/14 01:43:57;;;;;;;7.13;2.78;;;;;;;9.74;72.43;101175.50;4986930;28;20054;-50
2021/10/14 01:46:23;;;;;;;5.20;2.30;;;;;;;9.72;72.75;101177.19;4989528;28;20081;-50
2021/10/14 01:48:51;;;;;;;8.30;2.78;;;;;;;9.71;72.31;101175.44;4993614;28;20061;-52
2021/10/14 01:51:17;;;;;;;5.30;3.00;;;;;;;9.69;72.45;101177.13;4995100;28;20054;-53
2021/10/14 01:53:44;;;;;;;6.53;2.83;;;;;;;9.69;72.66;101182.28;4994330;28;20046;-50
2021/10/14 01:56:10;;;;;;;6.32;2.95;;;;;;;9.68;72.35;101185.72;4993081;28;20482;-52
2021/10/14 01:58:37;;;;;;;6.95;3.08;;;;;;;9.68;72.86;101177.97;4992321;28;20050;-50
2021/10/14 02:01:03;;;;;;;7.53;3.22;;;;;;;9.69;72.96;101171.09;4990043;28;20108;-48
2021/10/14 02:03:30;;;;;;;7.38;3.33;;;;;;;9.68;73.29;101172.78;4991940;28;20125;-50
2021/10/14 02:05:57;;;;;;;8.80;3.00;;;;;;;9.69;73.46;101171.94;4990638;28;20092;-52
2021/10/14 02:08:24;;;;;;;7.68;2.83;;;;;;;9.68;73.37;101175.38;4987801;28;20046;-50
2021/10/14 02:10:50;;;;;;;6.95;2.90;;;;;;;9.69;73.29;101171.94;4991317;28;20061;-49
2021/10/14 02:13:17;;;;;;;7.70;3.28;;;;;;;9.69;73.50;101166.78;4987268;28;20046;-50
2021/10/14 02:15:43;;;;;;;8.60;3.58;;;;;;;9.70;73.99;101165.94;4993241;28;20097;-50
2021/10/14 02:18:10;;;;;;;5.72;2.85;;;;;;;9.70;74.02;101160.78;4989758;28;20054;-49
2021/10/14 02:20:37;;;;;;;6.75;2.90;;;;;;;9.72;74.20;101166.84;5002934;28;20081;-49
2021/10/14 02:23:03;;;;;;;6.63;2.70;;;;;;;9.74;74.35;101160.00;4991377;28;20485;-49
2021/10/14 02:25:30;;;;;;;6.10;3.10;;;;;;;9.74;74.04;101154.81;4989351;28;20046;-49
2021/10/14 02:27:56;;;;;;;7.00;2.47;;;;;;;9.76;74.46;101157.41;4989548;28;20046;-51
2021/10/14 02:30:23;;;;;;;7.05;2.90;;;;;;;9.75;74.70;101153.97;4992257;28;20110;-49
2021/10/14 02:32:49;;;;;;;5.93;3.08;;;;;;;9.77;74.41;101149.66;4992467;28;20104;-51
2021/10/14 02:35:16;;;;;;;6.22;2.65;;;;;;;9.80;74.17;101148.00;4991800;28;20042;-50
2021/10/14 02:37:43;;;;;;;5.07;2.60;;;;;;;9.79;74.30;101148.84;4999034;28;20054;-52
2021/10/14 02:40:10;;;;;;;6.70;2.75;;;;;;;9.79;74.67;101135.91;4990454;28;20069;-49
2021/10/14 02:42:36;;;;;;;6.93;2.60;;;;;;;9.77;74.33;101134.16;4985244;28;20050;-49
2021/10/14 02:45:04;;;;;;;6.30;3.10;;;;;;;9.77;74.50;101139.31;4995595;28;20472;-51
2021/10/14 02:47:31;;;;;;;7.00;3.10;;;;;;;9.79;74.34;101141.09;4991148;28;20061;-52
2021/10/14 02:49:57;;;;;;;5.63;2.58;;;;;;;9.80;74.57;101142.81;4994009;28;20104;-50
2021/10/14 02:52:24;;;;;;;9.02;2.67;;;;;;;9.81;74.03;101140.25;4989777;28;20058;-49
2021/10/14 02:54:51;;;;;;;5.88;2.50;;;;;;;9.85;74.79;101136.00;4994639;28;20188;-50
2021/10/14 02:57:17;;;;;;;5.13;2.60;;;;;;;9.85;74.36;101130.81;4984259;28;20058;-50
2021/10/14 02:59:44;;;;;;;6.45;2.83;;;;;;;9.88;74.24;101136.06;4988851;28;20043;-49
2021/10/14 03:02:10;;;;;;;8.40;2.33;;;;;;;9.89;74.34;101132.63;4992487;28;20050;-49
2021/10/14 03:04:37;;;;;;;6.32;2.30;;;;;;;9.90;74.53;101134.41;4986848;28;20054;-50
2021/10/14 03:07:04;;;;;;;6.13;3.28;;;;;;;9.91;74.27;101130.94;4991213;28;20108;-49
2021/10/14 03:09:30;;;;;;;6.10;2.65;;;;;;;9.90;74.29;101130.06;4988508;28;20104;-50
2021/10/14 03:11:57;;;;;;;5.07;2.92;;;;;;;9.89;74.20;101127.44;4986399;28;20108;-49
2021/10/14 03:14:23;;;;;;;6.88;2.28;;;;;;;9.91;74.40;101130.94;4993996;28;20050;-49
2021/10/14 03:16:50;;;;;;;4.00;2.28;;;;;;;9.89;74.63;101128.34;4995093;28;20046;-49
2021/10/14 03:19:17;;;;;;;5.50;2.95;;;;;;;9.92;73.65;101126.66;5000378;28;20092;-50
2021/10/14 03:21:43;;;;;;;6.00;2.38;;;;;;;9.94;74.34;101124.94;4988463;28;20065;-49
2021/10/14 03:24:10;;;;;;;6.25;2.75;;;;;;;9.96;74.54;101129.31;4992982;28;20058;-49
2021/10/14 03:26:36;;;;;;;6.35;2.50;;;;;;;9.99;73.85;101119.00;4988473;28;20073;-50
2021/10/14 03:29:03;;;;;;;5.80;2.50;;;;;;;10.01;74.38;101119.91;4993539;28;20811;-49
2021/10/14 03:31:29;;;;;;;4.72;2.42;;;;;;;10.03;74.33;101118.22;4993951;28;20089;-50
2021/10/14 03:33:56;;;;;;;5.32;2.42;;;;;;;10.06;74.45;101119.13;4994649;28;20054;-51
2021/10/14 03:36:23;;;;;;;6.30;2.60;;;;;;;10.08;74.31;101122.59;5005977;28;20096;-50
2021/10/14 03:38:50;;;;;;;5.45;2.58;;;;;;;10.08;73.39;101118.31;4990599;28;20146;-50
2021/10/14 03:41:16;;;;;;;4.25;2.35;;;;;;;10.10;74.27;101120.91;4990857;28;20097;-52
2021/10/14 03:43:43;;;;;;;5.50;2.95;;;;;;;10.10;74.40;101116.59;4994258;28;20081;-52
2021/10/14 03:46:09;;;;;;;7.20;2.50;;;;;;;10.12;74.25;101124.38;5001129;28;20082;-49
2021/10/14 03:48:36;;;;;;;5.40;2.40;;;;;;;10.12;74.04;101117.50;4997554;28;20052;-49
2021/10/14 03:51:03;;;;;;;4.85;2.28;;;;;;;10.14;74.06;101112.34;4995175;28;20050;-49
2021/10/14 03:53:29;;;;;;;5.70;2.47;;;;;;;10.16;74.02;101115.81;4992070;28;20108;-49
2021/10/14 03:55:56;;;;;;;6.82;2.33;;;;;;;10.18;74.42;101108.97;4988937;28;20049;-49
2021/10/14 03:58:22;;;;;;;4.15;2.13;;;;;;;10.20;74.18;101112.44;4995310;28;20042;-51
2021/10/14 04:00:49;;;;;;;5.53;2.22;;;;;;;10.22;74.18;101108.16;4993667;28;20042;-49
2021/10/14 04:03:16;;;;;;;4.18;2.00;;;;;;;10.22;74.21;101100.41;5004202;28;20105;-52
2021/10/14 04:05:43;;;;;;;3.90;2.00;;;;;;;10.25;74.21;101105.63;4996017;28;20042;-51
2021/10/14 04:08:10;;;;;;;5.93;2.50;;;;;;;10.25;74.07;101097.84;4994052;28;20065;-53
2021/10/14 04:10:37;;;;;;;4.10;2.05;;;;;;;10.27;74.11;101098.75;4994169;28;20092;-50
2021/10/14 04:13:05;;;;;;;4.95;2.28;;;;;;;10.29;73.86;101097.06;4990124;28;20061;-50
2021/10/14 04:15:32;;;;;;;5.65;2.30;;;;;;;10.31;74.44;101103.97;4992543;28;20050;-50
2021/10/14 04:17:58;;;;;;;5.35;2.63;;;;;;;10.33;74.35;101097.09;4993005;28;20047;-50
2021/10/14 04:20:25;;;;;;;5.03;2.33;;;;;;;10.33;74.02;101092.78;4992912;28;20080;-49
2021/10/14 04:22:53;;;;;;;6.38;2.42;;;;;;;10.38;74.51;101100.63;4989080;28;20054;-50
2021/10/14 04:25:20;;;;;;;6.00;2.28;;;;;;;10.39;74.19;101097.19;4989813;28;20058;-50
2021/10/14 04:27:46;;;;;;;3.97;2.45;;;;;;;10.40;74.73;101094.63;5000810;28;20045;-49
2021/10/14 04:30:13;;;;;;;4.90;2.25;;;;;;;10.43;74.60;101093.78;4990038;28;20089;-52
2021/10/14 04:32:41;;;;;;;7.28;2.58;;;;;;;10.46;74.60;101088.69;4995890;28;20050;-50
2021/10/14 04:35:09;;;;;;;5.32;2.22;;;;;;;10.49;74.81;101095.63;4991395;28;20042;-49
2021/10/14 04:37:39;;;;;;;6.40;2.42;;;;;;;10.49;74.26;101093.94;4990052;28;20046;-49
2021/10/14 04:40:07;;;;;;;7.57;2.13;;;;;;;10.53;73.97;101095.72;4997585;28;20057;-49
2021/10/14 04:42:33;;;;;;;6.03;2.08;;;;;;;10.57;74.38;101098.34;4989272;28;20112;-49
2021/10/14 04:45:00;;;;;;;4.00;2.10;;;;;;;10.56;73.94;101089.69;5001153;28;20062;-50
2021/10/14 04:47:27;;;;;;;4.85;2.05;;;;;;;10.59;74.18;101091.44;4991176;28;20096;-49
2021/10/14 04:49:53;;;;;;;4.68;2.20;;;;;;;10.58;74.65;101081.94;4994132;28;20119;-50
2021/10/14 04:52:20;;;;;;;4.93;2.55;;;;;;;10.57;74.56;101080.22;4993997;28;20454;-50
2021/10/14 04:54:47;;;;;;;4.85;2.22;;;;;;;10.56;73.71;101081.03;4993077;28;20050;-50
2021/10/14 04:57:13;;;;;;;4.03;2.03;;;;;;;10.52;73.72;101077.53;4996415;28;20069;-50
2021/10/14 04:59:40;;;;;;;4.57;2.10;;;;;;;10.45;74.12;101080.91;5004101;28;20046;-50
2021/10/14 05:02:07;;;;;;;5.28;2.00;;;;;;;10.38;73.49;101072.13;5000227;28;20053;-49
2021/10/14 05:04:33;;;;;;;6.03;2.45;;;;;;;10.35;74.49;101079.84;4989820;28;20179;-49
2021/10/14 05:07:00;;;;;;;4.53;2.15;;;;;;;10.31;74.38;101072.91;4991317;28;20054;-51
2021/10/14 05:09:27;;;;;;;4.88;2.28;;;;;;;10.28;74.67;101073.72;4996436;28;20653;-48
2021/10/14 05:11:53;;;;;;;4.90;2.33;;;;;;;10.24;74.61;101072.78;4992313;28;20100;-50
2021/10/14 05:14:20;;;;;;;5.90;2.35;;;;;;;10.22;74.46;101079.69;4998131;28;20112;-50
2021/10/14 05:16:46;;;;;;;8.02;2.70;;;;;;;10.18;74.21;101077.91;4994672;28;20050;-49
2021/10/14 05:19:13;;;;;;;5.22;2.22;;;;;;;10.12;74.74;101077.78;4994951;28;20054;-49
2021/10/14 05:21:41;;;;;;;6.53;2.85;;;;;;;10.09;74.66;101077.72;4989625;28;20042;-49
2021/10/14 05:24:08;;;;;;;5.75;2.35;;;;;;;10.03;74.45;101074.22;4989499;28;20050;-49
2021/10/14 05:26:34;;;;;;;6.05;2.58;;;;;;;9.99;74.44;101082.78;4987555;28;20050;-49
2021/10/14 05:29:01;;;;;;;5.28;2.60;;;;;;;9.96;74.63;101076.69;4997946;28;20046;-49
2021/10/14 05:31:29;;;;;;;7.38;3.03;;;;;;;9.94;74.89;101076.66;4990197;28;20073;-50
2021/10/14 05:33:56;;;;;;;6.30;2.40;;;;;;;9.94;74.87;101073.19;4988873;28;20058;-49
2021/10/14 05:36:23;;;;;;;8.65;3.03;;;;;;;9.95;75.78;101070.63;4987164;28;20093;-49
2021/10/14 05:38:50;;;;;;;6.65;2.92;;;;;;;9.97;75.00;101063.75;4987731;28;20152;-49
2021/10/14 05:41:17;;;;;;;8.00;3.03;;;;;;;9.98;74.88;101060.34;4997515;28;20055;-49
2021/10/14 05:43:44;;;;;;;7.05;2.83;;;;;;;9.98;75.08;101068.09;4987735;28;20626;-49
2021/10/14 05:46:10;;;;;;;7.22;2.90;;;;;;;9.97;74.74;101066.34;4988436;28;20050;-49
2021/10/14 05:48:38;;;;;;;7.25;2.75;;;;;;;9.95;74.89;101062.88;4997335;28;20132;-48
2021/10/14 05:51:04;;;;;;;7.50;2.47;;;;;;;9.96;75.28;101056.84;4988608;28;20046;-50
2021/10/14 05:53:31;;;;;;;8.05;3.22;;;;;;;9.98;75.04;101054.28;4990984;28;20088;-50
2021/10/14 05:55:58;;;;;;;6.47;3.25;;;;;;;9.99;75.07;101051.72;4989888;28;20050;-50
2021/10/14 05:58:24;;;;;;;9.35;3.10;;;;;;;10.02;75.22;101054.34;4992238;28;20054;-49
2021/10/14 06:00:51;;;;;;;7.22;3.03;;;;;;;10.06;75.55;101046.66;4991509;28;20050;-51
2021/10/14 06:03:18;;;;;;;6.57;2.88;;;;;;;10.08;75.52;101053.59;4989279;28;20054;-52
2021/10/14 06:05:44;;;;;;;6.70;2.70;;;;;;;10.12;74.93;101054.50;4988889;28;20050;-49
2021/10/14 06:08:11;;;;;;;7.10;3.60;;;;;;;10.15;74.99;101042.47;4995993;28;20051;-50
2021/10/14 06:10:38;;;;;;;5.82;2.60;;;;;;;10.18;75.33;101046.81;4992597;28;20038;-49
2021/10/14 06:13:04;;;;;;;7.40;3.13;;;;;;;10.21;75.11;101046.88;4988358;28;20050;-49
2021/10/14 06:15:31;;;;;;;8.52;3.17;;;;;;;10.24;74.95;101046.91;4997770;28;20046;-50
2021/10/14 06:17:57;;;;;;;7.75;2.88;;;;;;;10.26;75.25;101034.88;4985510;28;20104;-50
2021/10/14 06:20:24;;;;;;;6.13;2.88;;;;;;;10.28;75.16;101048.72;4986670;28;20096;-49
2021/10/14 06:22:51;;;;;;;6.75;2.88;;;;;;;10.29;75.10;101039.22;4991977;28;20104;-51
2021/10/14 06:25:18;;;;;;;7.38;2.90;;;;;;;10.29;75.38;101042.69;4992778;28;20100;-52
2021/10/14 06:27:44;;;;;;;8.25;2.67;;;;;;;10.32;75.10;101051.31;4998387;28;20049;-49
2021/10/14 06:30:11;;;;;;;8.55;3.40;;;;;;;10.33;75.00;101055.69;4989507;28;20042;-49
2021/10/14 06:32:37;;;;;;;8.25;3.55;;;;;;;10.36;75.57;101047.94;4988371;28;20097;-49
2021/10/14 06:35:05;;;;;;;9.32;3.55;;;;;;;10.38;75.34;101051.44;4991003;28;20050;-49
2021/10/14 06:37:32;;;;;;;6.93;2.83;;;;;;;10.40;75.53;101057.47;4980461;28;20081;-50
2021/10/14 06:39:58;;;;;;;7.75;3.40;;;;;;;10.42;75.51;101045.44;4990138;28;20047;-50
2021/10/14 06:42:25;;;;;;;6.45;3.17;;;;;;;10.44;75.31;101046.34;4987022;28;20450;-50
2021/10/14 06:44:51;;;;;;;6.93;2.75;;;;;;;10.47;75.15;101041.22;4978950;28;20088;-50
2021/10/14 06:47:18;;;;;;;9.35;4.15;;;;;;;10.49;75.50;101042.13;4983733;28;20101;-50
2021/10/14 06:49:48;;;;;;;10.07;3.22;;;;;;;10.52;75.42;101039.56;4990908;28;20053;-52
2021/10/14 06:52:16;;;;;;;7.80;3.30;;;;;;;10.54;75.41;101039.59;4986024;28;20053;-52
2021/10/14 06:54:43;;;;;;;7.20;2.90;;;;;;;10.57;75.32;101043.94;4984318;28;20178;-49
2021/10/14 06:57:10;;;;;;;9.07;3.30;;;;;;;10.58;75.73;101035.31;4981826;28;20062;-52
2021/10/14 06:59:36;;;;;;;6.38;3.10;;;;;;;10.62;74.80;101034.50;4981050;28;20050;-49
2021/10/14 07:02:03;;;;;;;6.72;3.05;;;;;;;10.65;74.93;101034.53;4986845;28;20054;-48
2021/10/14 07:04:30;;;;;;;7.53;3.47;;;;;;;10.68;75.14;101032.00;4981807;28;20137;-51
2021/10/14 07:06:57;;;;;;;9.00;3.15;;;;;;;10.71;75.22;101020.81;4992073;28;20058;-49
2021/10/14 07:09:23;;;;;;;8.55;3.33;;;;;;;10.73;75.24;101019.97;4988881;28;20058;-49
2021/10/14 07:11:55;;;;;;;8.00;3.47;;;;;;;10.76;75.68;101019.13;4984233;28;20046;-49
2021/10/14 07:14:23;;;;;;;8.25;3.38;;;;;;;10.79;75.65;101020.06;4985171;28;20108;-51
2021/10/14 07:16:50;;;;;;;9.77;3.00;;;;;;;10.85;75.58;101019.25;4984297;28;20058;-49
2021/10/14 07:19:16;;;;;;;8.13;3.33;;;;;;;10.86;74.83;101020.09;4981546;28;20056;-49
2021/10/14 07:21:43;;;;;;;9.15;3.35;;;;;;;10.90;76.03;101016.69;4982505;28;20046;-49
2021/10/14 07:24:10;;;;;;;9.70;3.72;;;;;;;10.94;75.52;101013.28;4985733;28;20306;-51
2021/10/14 07:26:37;;;;;;;9.77;3.33;;;;;;;10.96;75.45;101021.97;4984111;28;20042;-49
2021/10/14 07:29:04;;;;;;;8.48;3.63;;;;;;;11.00;75.79;101017.66;4984272;28;20364;-49
2021/10/14 07:31:31;;;;;;;8.55;3.20;;;;;;;11.02;75.94;101022.00;4982789;28;20038;-50
2021/10/14 07:33:58;;;;;;;7.40;3.25;;;;;;;11.05;75.41;101019.47;4984798;28;20101;-50
2021/10/14 07:36:25;;;;;;;7.07;3.35;;;;;;;11.09;75.12;101016.91;4983780;28;20504;-50
2021/10/14 07:38:52;;;;;;;9.45;3.45;;;;;;;11.12;75.20;101016.94;4989028;28;20493;-49
2021/10/14 07:41:18;;;;;;;10.35;3.72;;;;;;;11.15;75.84;101016.97;4983724;28;20181;-50
2021/10/14 07:43:45;;;;;;;8.32;3.88;;;;;;;11.21;75.08;101014.44;4987602;28;20050;-49
2021/10/14 07:46:11;;;;;;;10.75;4.05;;;;;;;11.25;76.56;101018.78;4983834;28;20069;-51
2021/10/14 07:48:38;;;;;;;10.68;3.78;;;;;;;11.29;76.13;101014.53;4990125;28;20088;-49
2021/10/14 07:51:05;;;;;;;9.32;3.65;;;;;;;11.32;75.77;101018.00;4986184;28;20477;-50
2021/10/14 07:53:31;;;;;;;11.60;4.00;;;;;;;11.37;75.08;101017.19;4986837;28;20054;-49
2021/10/14 07:55:58;;;;;;;9.63;4.43;;;;;;;11.41;75.07;101021.53;4997724;28;20490;-50
2021/10/14 07:58:25;;;;;;;14.40;4.13;;;;;;;11.46;76.18;101022.47;4992885;28;20050;-50
2021/10/14 08:00:51;;;;;;;10.23;4.00;;;;;;;11.50;76.35;101018.16;4984895;28;20830;-50
2021/10/14 08:03:19;;;;;;;11.73;4.50;;;;;;;11.55;75.26;101014.75;4990292;28;20195;-51
2021/10/14 08:05:46;;;;;;;14.27;6.32;;;;;;;11.61;75.46;101010.47;4992011;28;20069;-50
2021/10/14 08:08:13;;;;;;;13.30;4.78;;;;;;;11.64;75.75;101010.50;4989101;28;20092;-49
2021/10/14 08:10:41;;;;;;;11.50;4.60;;;;;;;11.67;75.85;101008.81;4994151;28;20053;-50
2021/10/14 08:13:13;;;;;;;9.77;4.63;;;;;;;11.71;74.92;101009.69;4984376;28;20058;-50
2021/10/14 08:15:44;;;;;;;9.50;4.50;;;;;;;11.74;75.78;101004.53;4981189;28;20057;-52
2021/10/14 08:18:10;;;;;;;7.30;3.63;;;;;;;11.77;75.82;101001.09;5007850;28;20050;-51
2021/10/14 08:20:38;;;;;;;8.93;4.22;;;;;;;11.82;74.92;101000.28;4987338;28;20042;-50
2021/10/14 08:23:06;;;;;;;7.72;3.47;;;;;;;11.85;74.74;100999.41;4997913;28;20100;-51
2021/10/14 08:25:33;;;;;;;9.15;3.40;;;;;;;11.88;74.26;101003.75;4989677;28;20069;-50
2021/10/14 08:28:00;;;;;;;7.22;3.15;;;;;;;11.91;75.33;101003.78;4985221;28;20058;-50
2021/10/14 08:30:26;;;;;;;10.15;4.00;;;;;;;11.95;74.29;101000.34;4987088;28;20046;-51
2021/10/14 08:32:54;;;;;;;8.23;3.38;;;;;;;12.01;75.18;101005.59;4989626;28;20050;-53
2021/10/14 08:35:21;;;;;;;10.23;3.70;;;;;;;12.04;75.10;101000.44;4988343;28;20054;-50
2021/10/14 08:37:48;;;;;;;8.15;3.72;;;;;;;12.10;74.63;100996.16;4992439;28;20058;-50
2021/10/14 08:40:16;;;;;;;8.10;3.42;;;;;;;12.13;74.36;100996.19;4985702;28;20071;-53
2021/10/14 08:42:43;;;;;;;7.47;3.92;;;;;;;12.21;74.25;100991.91;4985622;28;20041;-51
2021/10/14 08:45:12;;;;;;;7.88;3.25;;;;;;;12.26;74.39;100990.19;4992869;28;20601;-52
2021/10/14 08:47:40;;;;;;;7.45;3.50;;;;;;;12.31;74.16;100988.50;5001630;28;20070;-52
2021/10/14 08:50:10;;;;;;;8.30;3.17;;;;;;;12.37;74.66;100981.59;4987974;28;20055;-53
2021/10/14 08:52:37;;;;;;;7.10;3.40;;;;;;;12.42;73.49;100980.75;4989406;28;20046;-51
2021/10/14 08:55:04;;;;;;;8.70;3.65;;;;;;;12.48;73.72;100972.13;4991045;28;20050;-51
2021/10/14 08:57:30;;;;;;;10.00;3.03;;;;;;;12.54;73.00;100969.56;4987511;28;20660;-51
2021/10/14 08:59:57;;;;;;;6.95;3.40;;;;;;;12.62;73.06;100971.28;4987464;28;20051;-53
2021/10/14 09:02:24;;;;;;;7.70;3.25;;;;;;;12.71;73.51;100976.53;4990503;28;20446;-51
2021/10/14 09:04:57;;;;;;;6.97;3.30;;;;;;;12.79;73.71;100974.81;4988063;28;20084;-54
2021/10/14 09:07:27;;;;;;;6.50;2.95;;;;;;;12.89;72.92;100977.44;4993584;28;20101;-50
2021/10/14 09:09:58;;;;;;;7.20;3.50;;;;;;;12.95;72.54;100970.53;4991643;28;20050;-51
2021/10/14 09:12:31;;;;;;;7.43;3.33;;;;;;;13.04;72.86;100969.66;4996440;28;20054;-53
2021/10/14 09:15:03;;;;;;;7.82;3.47;;;;;;;13.12;73.24;100967.09;4986476;28;20178;-53
2021/10/14 09:17:42;;;;;;;8.65;4.13;;;;;;;13.15;73.01;100963.63;4987370;28;20093;-52
2021/10/14 09:20:30;;;;;;;8.85;4.13;;;;;;;13.19;71.88;100962.75;4997776;28;20053;-54
2021/10/14 09:23:01;;;;;;;12.10;3.88;;;;;;;13.22;72.70;100967.97;4981941;28;20055;-50
2021/10/14 09:25:34;;;;;;;9.57;3.90;;;;;;;13.23;72.29;100970.56;4982815;28;20050;-51
2021/10/14 09:28:08;;;;;;;7.97;3.60;;;;;;;13.29;72.65;100964.50;4985319;28;20108;-52
2021/10/14 09:30:44;;;;;;;8.07;3.40;;;;;;;13.34;71.16;100952.38;4988392;28;20050;-50
2021/10/14 09:33:35;;;;;;;8.80;2.80;;;;;;;13.37;71.22;100952.38;4987498;28;20074;-53
2021/10/14 09:36:12;;;;;;;7.70;4.00;;;;;;;13.47;71.34;100957.56;4994469;28;20162;-52
2021/10/14 09:38:40;;;;;;;6.47;3.03;;;;;;;13.53;71.86;100951.53;4986859;28;20100;-50
2021/10/14 09:41:11;;;;;;;6.68;3.55;;;;;;;13.57;71.11;100953.25;4987133;28;20076;-52
2021/10/14 09:43:38;;;;;;;7.10;3.60;;;;;;;13.58;71.01;100950.66;4986795;28;20137;-49
2021/10/14 09:46:05;;;;;;;5.88;3.30;;;;;;;13.65;70.79;100945.44;4992994;28;20058;-51
2021/10/14 09:48:35;;;;;;;7.30;3.63;;;;;;;13.70;71.24;100948.91;4988780;28;20389;-50
2021/10/14 09:51:02;;;;;;;6.45;2.72;;;;;;;13.75;71.22;100958.44;4993255;28;20092;-48
2021/10/14 09:53:31;;;;;;;9.05;3.45;;;;;;;13.77;70.94;100940.22;4982170;28;20058;-50
2021/10/14 09:55:57;;;;;;;7.30;3.25;;;;;;;13.76;70.78;100941.09;4987513;28;20051;-52
2021/10/14 09:58:24;;;;;;;6.00;2.60;;;;;;;13.79;70.45;100943.72;4990447;28;20062;-51
2021/10/14 10:00:52;;;;;;;7.97;3.17;;;;;;;13.81;70.96;100931.53;4990067;28;20402;-50
2021/10/14 10:03:21;;;;;;;6.30;2.88;;;;;;;13.85;70.68;100938.47;4992643;28;20046;-50
2021/10/14 10:05:51;;;;;;;6.80;3.33;;;;;;;13.88;70.19;100925.44;4991193;28;20053;-50
2021/10/14 10:08:27;;;;;;;6.18;2.90;;;;;;;13.91;69.12;100936.75;4986747;28;20061;-50
2021/10/14 10:10:59;;;;;;;9.27;2.97;;;;;;;13.93;69.24;100929.78;4986374;28;20050;-52
2021/10/14 10:13:27;;;;;;;6.43;2.45;;;;;;;13.88;68.53;100921.97;4980405;28;20054;-49
2021/10/14 10:15:53;;;;;;;4.60;2.40;;;;;;;13.80;68.42;100919.38;4981995;28;20098;-51
2021/10/14 10:18:40;;;;;;;4.45;2.33;;;;;;;13.68;68.53;100922.03;4993754;28;20477;-51
2021/10/14 10:21:09;;;;;;;5.43;2.20;;;;;;;13.64;68.51;100922.91;4983996;28;20090;-50
2021/10/14 10:23:46;;;;;;;7.78;3.28;;;;;;;13.58;68.07;100918.56;4987839;28;20125;-50
2021/10/14 10:26:48;;;;;;;8.02;2.60;;;;;;;13.55;68.65;100922.03;4984860;28;20047;-49
2021/10/14 10:29:36;;;;;;;6.13;2.90;;;;;;;13.58;68.41;100928.97;4984258;28;20101;-51
2021/10/14 10:32:11;;;;;;;5.90;2.83;;;;;;;13.68;68.85;100919.44;4998978;28;20054;-51
2021/10/14 10:34:50;;;;;;;6.00;2.85;;;;;;;13.79;68.85;100907.25;4986534;28;20137;-51
2021/10/14 10:37:38;;;;;;;5.20;2.65;;;;;;;13.96;69.02;100899.41;4991877;28;20050;-50
2021/10/14 10:40:13;;;;;;;5.13;2.90;;;;;;;14.16;67.62;100894.97;4990709;28;20103;-52
2021/10/14 10:42:43;;;;;;;4.63;2.05;;;;;;;14.29;68.18;100895.78;4985718;28;20093;-51
2021/10/14 10:45:15;;;;;;;5.40;2.85;;;;;;;14.37;67.15;100897.50;4984351;28;20050;-53
2021/10/14 10:48:00;;;;;;;4.72;2.33;;;;;;;14.46;68.57;100896.56;4984098;28;20104;-50
2021/10/14 10:50:48;;;;;;;4.57;2.40;;;;;;;14.64;67.46;100886.91;4989953;28;20101;-54
2021/10/14 10:53:22;;;;;;;4.13;2.45;;;;;;;14.80;67.50;100882.50;4987069;28;20042;-53
2021/10/14 10:55:52;;;;;;;4.30;2.38;;;;;;;14.93;67.82;100887.63;4987301;28;20096;-54
2021/10/14 10:58:47;;;;;;;6.00;1.92;;;;;;;15.01;65.33;100880.59;4995551;28;20046;-54
2021/10/14 11:01:17;;;;;;;5.07;2.10;;;;;;;15.09;66.63;100873.56;4990743;28;20057;-54
2021/10/14 11:04:01;;;;;;;2.95;1.42;;;;;;;15.10;65.31;100871.84;4984728;28;20498;-51
2021/10/14 11:06:31;;;;;;;7.82;3.25;;;;;;;15.11;66.00;100871.84;4996149;28;20112;-51
2021/10/14 11:09:05;;;;;;;5.65;2.38;;;;;;;15.08;64.81;100874.47;4986828;28;20054;-50
2021/10/14 11:11:34;;;;;;;3.15;1.60;;;;;;;15.07;65.89;100870.13;4986660;28;20064;-52
2021/10/14 11:14:01;;;;;;;4.03;2.00;;;;;;;15.11;66.21;100861.41;4996832;28;20049;-52
2021/10/14 11:16:29;;;;;;;4.78;2.38;;;;;;;15.15;66.24;100863.09;4988158;28;20050;-51
2021/10/14 11:18:58;;;;;;;3.65;2.05;;;;;;;15.21;66.02;100866.53;4991723;28;20133;-53
2021/10/14 11:21:36;;;;;;;4.45;2.65;;;;;;;15.25;65.14;100855.19;4984537;28;20042;-54
2021/10/14 11:24:04;;;;;;;3.60;1.95;;;;;;;15.29;65.42;100849.94;4985566;28;20081;-51
2021/10/14 11:26:37;;;;;;;4.30;1.95;;;;;;;15.31;64.72;100862.97;4987442;28;20625;-53
2021/10/14 11:29:16;;;;;;;3.35;1.70;;;;;;;15.31;64.27;100857.75;4987196;28;20046;-51
2021/10/14 11:31:47;;;;;;;5.00;1.80;;;;;;;15.33;64.41;100852.50;4986622;28;20054;-54